sensor_id;sensor_type;location;lat;lon;timestamp;pressure;altitude;pressure_sealevel;temperature;humidity
1472;BME280;963;42.644;23.336;2024-01-07T00:00:40;92697.97;;;9.02;75.32
1472;BME280;963;42.644;23.336;2024-01-07T00:03:05;92719.69;;;9.06;75.73
1472;BME280;963;42.644;23.336;2024-01-07T00:05:30;92724.56;;;9.08;76.25
1472;BME280;963;42.644;23.336;2024-01-07T00:07:56;92693.13;;;8.97;76.67
1472;BME280;963;42.644;23.336;2024-01-07T00:10:21;92699.84;;;9.05;75.97
1472;BME280;963;42.644;23.336;2024-01-07T00:12:46;92696.13;;;8.99;75.43
1472;BME280;963;42.644;23.336;2024-01-07T00:15:13;92686.47;;;8.78;75.21
1472;BME280;963;42.644;23.336;2024-01-07T00:17:38;92675.22;;;8.82;76.05
1472;BME280;963;42.644;23.336;2024-01-07T00:20:04;92678.22;;;8.76;76.29
1472;BME280;963;42.644;23.336;2024-01-07T00:22:30;92683.84;;;8.75;76.43
1472;BME280;963;42.644;23.336;2024-01-07T00:24:55;92684.25;;;8.70;76.81
1472;BME280;963;42.644;23.336;2024-01-07T00:27:21;92672.31;;;8.51;78.53
1472;BME280;963;42.644;23.336;2024-01-07T00:29:46;92668.53;;;8.70;77.70
1472;BME280;963;42.644;23.336;2024-01-07T00:32:12;92658.41;;;8.72;77.60
1472;BME280;963;42.644;23.336;2024-01-07T00:34:37;92656.16;;;8.70;77.24
1472;BME280;963;42.644;23.336;2024-01-07T00:37:02;92657.28;;;8.73;77.56
1472;BME280;963;42.644;23.336;2024-01-07T00:39:28;92660.25;;;8.75;76.25
1472;BME280;963;42.644;23.336;2024-01-07T00:41:53;92646.78;;;8.76;76.22
1472;BME280;963;42.644;23.336;2024-01-07T00:44:19;92651.28;;;8.76;76.24
1472;BME280;963;42.644;23.336;2024-01-07T00:46:44;92643.78;;;8.78;75.98
1472;BME280;963;42.644;23.336;2024-01-07T00:49:09;92637.06;;;8.73;75.66
1472;BME280;963;42.644;23.336;2024-01-07T00:51:35;92630.69;;;8.71;76.22
1472;BME280;963;42.644;23.336;2024-01-07T00:54:00;92620.63;;;8.66;75.79
1472;BME280;963;42.644;23.336;2024-01-07T00:56:26;92613.88;;;8.68;75.43
1472;BME280;963;42.644;23.336;2024-01-07T00:58:52;92620.56;;;8.73;74.91
1472;BME280;963;42.644;23.336;2024-01-07T01:01:17;92612.03;;;8.62;75.40
1472;BME280;963;42.644;23.336;2024-01-07T01:03:43;92605.31;;;8.57;76.31
1472;BME280;963;42.644;23.336;2024-01-07T01:06:08;92602.69;;;8.54;76.04
1472;BME280;963;42.644;23.336;2024-01-07T01:08:33;92611.69;;;8.45;76.98
1472;BME280;963;42.644;23.336;2024-01-07T01:10:59;92599.78;;;8.27;77.29
1472;BME280;963;42.644;23.336;2024-01-07T01:13:24;92596.34;;;8.48;77.36
1472;BME280;963;42.644;23.336;2024-01-07T01:15:49;92581.75;;;8.46;76.72
1472;BME280;963;42.644;23.336;2024-01-07T01:18:15;92575.75;;;8.57;76.62
1472;BME280;963;42.644;23.336;2024-01-07T01:20:40;92578.38;;;8.50;76.71
1472;BME280;963;42.644;23.336;2024-01-07T01:23:06;92553.69;;;8.47;76.02
1472;BME280;963;42.644;23.336;2024-01-07T01:25:31;92577.63;;;8.45;76.53
1472;BME280;963;42.644;23.336;2024-01-07T01:27:57;92566.78;;;8.43;76.52
1472;BME280;963;42.644;23.336;2024-01-07T01:30:22;92535.34;;;8.43;76.65
1472;BME280;963;42.644;23.336;2024-01-07T01:32:47;92533.47;;;8.48;76.98
1472;BME280;963;42.644;23.336;2024-01-07T01:35:13;92531.63;;;8.41;76.54
1472;BME280;963;42.644;23.336;2024-01-07T01:37:38;92542.09;;;8.41;76.89
1472;BME280;963;42.644;23.336;2024-01-07T01:40:04;92531.25;;;8.42;76.78
1472;BME280;963;42.644;23.336;2024-01-07T01:42:29;92509.16;;;8.43;76.75
1472;BME280;963;42.644;23.336;2024-01-07T01:44:55;92518.19;;;8.32;77.67
1472;BME280;963;42.644;23.336;2024-01-07T01:47:24;92501.47;;;8.01;78.64
1472;BME280;963;42.644;23.336;2024-01-07T01:49:50;92489.13;;;8.01;80.09
1472;BME280;963;42.644;23.336;2024-01-07T01:52:15;92496.53;;;8.21;79.74
1472;BME280;963;42.644;23.336;2024-01-07T01:54:41;92482.56;;;7.43;86.12
1472;BME280;963;42.644;23.336;2024-01-07T01:57:09;92463.75;;;7.88;85.03
1472;BME280;963;42.644;23.336;2024-01-07T01:59:36;92480.84;;;8.13;82.38
1472;BME280;963;42.644;23.336;2024-01-07T02:02:02;92466.56;;;8.25;82.38
1472;BME280;963;42.644;23.336;2024-01-07T02:04:27;92464.31;;;8.34;81.89
1472;BME280;963;42.644;23.336;2024-01-07T02:06:53;92480.06;;;8.20;84.13
1472;BME280;963;42.644;23.336;2024-01-07T02:09:19;92477.97;;;7.83;92.13
1472;BME280;963;42.644;23.336;2024-01-07T02:12:00;92483.91;;;7.98;94.30
1472;BME280;963;42.644;23.336;2024-01-07T02:14:25;92470.06;;;8.01;96.63
1472;BME280;963;42.644;23.336;2024-01-07T02:16:50;92459.44;;;8.29;97.16
1472;BME280;963;42.644;23.336;2024-01-07T02:19:16;92445.91;;;8.45;96.98
1472;BME280;963;42.644;23.336;2024-01-07T02:21:42;92443.06;;;8.77;95.04
1472;BME280;963;42.644;23.336;2024-01-07T02:24:15;92434.69;;;8.96;94.39
1472;BME280;963;42.644;23.336;2024-01-07T02:26:40;92400.88;;;9.05;93.42
1472;BME280;963;42.644;23.336;2024-01-07T02:29:06;92401.06;;;9.25;92.78
1472;BME280;963;42.644;23.336;2024-01-07T02:31:31;92392.44;;;9.25;92.81
1472;BME280;963;42.644;23.336;2024-01-07T02:33:56;92378.13;;;9.33;92.46
1472;BME280;963;42.644;23.336;2024-01-07T02:36:22;92362.22;;;9.47;91.55
1472;BME280;963;42.644;23.336;2024-01-07T02:38:47;92372.34;;;9.49;91.90
1472;BME280;963;42.644;23.336;2024-01-07T02:41:13;92396.72;;;9.46;92.12
1472;BME280;963;42.644;23.336;2024-01-07T02:43:38;92368.22;;;9.48;91.55
1472;BME280;963;42.644;23.336;2024-01-07T02:46:03;92389.56;;;9.50;91.77
1472;BME280;963;42.644;23.336;2024-01-07T02:48:29;92383.94;;;9.51;92.39
1472;BME280;963;42.644;23.336;2024-01-07T02:50:55;92390.63;;;9.56;92.13
1472;BME280;963;42.644;23.336;2024-01-07T02:53:21;92373.44;;;9.51;92.05
1472;BME280;963;42.644;23.336;2024-01-07T02:55:46;92378.00;;;9.44;92.16
1472;BME280;963;42.644;23.336;2024-01-07T02:58:12;92384.59;;;9.59;92.22
1472;BME280;963;42.644;23.336;2024-01-07T03:00:37;92391.28;;;9.63;92.17
1472;BME280;963;42.644;23.336;2024-01-07T03:03:02;92394.69;;;9.60;92.39
1472;BME280;963;42.644;23.336;2024-01-07T03:05:28;92390.47;;;9.70;92.19
1472;BME280;963;42.644;23.336;2024-01-07T03:07:58;92396.72;;;9.80;91.89
1472;BME280;963;42.644;23.336;2024-01-07T03:10:23;92400.19;;;9.73;92.76
1472;BME280;963;42.644;23.336;2024-01-07T03:12:49;92414.31;;;9.83;92.00
1472;BME280;963;42.644;23.336;2024-01-07T03:15:15;92432.44;;;9.74;93.08
1472;BME280;963;42.644;23.336;2024-01-07T03:17:40;92420.78;;;9.75;92.72
1472;BME280;963;42.644;23.336;2024-01-07T03:20:06;92421.13;;;9.77;93.36
1472;BME280;963;42.644;23.336;2024-01-07T03:25:15;92419.38;;;9.97;93.35
1472;BME280;963;42.644;23.336;2024-01-07T03:27:41;92433.84;;;10.12;92.76
1472;BME280;963;42.644;23.336;2024-01-07T03:30:07;92416.03;;;10.27;91.84
1472;BME280;963;42.644;23.336;2024-01-07T03:32:33;92403.19;;;10.32;91.33
1472;BME280;963;42.644;23.336;2024-01-07T03:34:58;92416.44;;;10.52;91.21
1472;BME280;963;42.644;23.336;2024-01-07T03:37:24;92411.91;;;10.53;89.85
1472;BME280;963;42.644;23.336;2024-01-07T03:39:49;92401.00;;;10.54;87.46
1472;BME280;963;42.644;23.336;2024-01-07T03:42:14;92402.19;;;10.50;86.66
1472;BME280;963;42.644;23.336;2024-01-07T03:44:40;92398.97;;;10.39;86.66
1472;BME280;963;42.644;23.336;2024-01-07T03:47:06;92418.09;;;10.39;86.77
1472;BME280;963;42.644;23.336;2024-01-07T03:49:31;92416.78;;;10.27;87.51
1472;BME280;963;42.644;23.336;2024-01-07T03:51:57;92396.09;;;10.29;86.68
1472;BME280;963;42.644;23.336;2024-01-07T03:54:22;92394.97;;;10.30;86.94
1472;BME280;963;42.644;23.336;2024-01-07T03:56:48;92403.25;;;10.29;87.26
1472;BME280;963;42.644;23.336;2024-01-07T03:59:13;92392.78;;;10.25;87.09
1472;BME280;963;42.644;23.336;2024-01-07T04:01:38;92393.19;;;10.24;87.31
1472;BME280;963;42.644;23.336;2024-01-07T04:04:04;92390.59;;;10.20;87.52
1472;BME280;963;42.644;23.336;2024-01-07T04:06:29;92375.78;;;10.03;87.67
1472;BME280;963;42.644;23.336;2024-01-07T04:08:54;92370.53;;;10.03;87.46
1472;BME280;963;42.644;23.336;2024-01-07T04:11:20;92390.78;;;10.06;86.39
1472;BME280;963;42.644;23.336;2024-01-07T04:13:45;92382.53;;;10.04;85.97
1472;BME280;963;42.644;23.336;2024-01-07T04:16:18;92384.06;;;10.01;85.98
1472;BME280;963;42.644;23.336;2024-01-07T04:18:44;92385.78;;;9.85;86.76
1472;BME280;963;42.644;23.336;2024-01-07T04:21:09;92383.59;;;9.80;86.56
1472;BME280;963;42.644;23.336;2024-01-07T04:23:35;92408.41;;;9.75;86.45
1472;BME280;963;42.644;23.336;2024-01-07T04:26:00;92385.28;;;9.63;86.32
1472;BME280;963;42.644;23.336;2024-01-07T04:28:26;92383.88;;;9.55;86.26
1472;BME280;963;42.644;23.336;2024-01-07T04:30:51;92375.66;;;9.53;86.46
1472;BME280;963;42.644;23.336;2024-01-07T04:33:17;92370.75;;;9.55;86.68
1472;BME280;963;42.644;23.336;2024-01-07T04:35:42;92374.81;;;9.59;86.95
1472;BME280;963;42.644;23.336;2024-01-07T04:38:07;92358.28;;;9.62;86.92
1472;BME280;963;42.644;23.336;2024-01-07T04:40:33;92345.97;;;9.59;86.94
1472;BME280;963;42.644;23.336;2024-01-07T04:42:59;92360.91;;;9.62;87.22
1472;BME280;963;42.644;23.336;2024-01-07T04:45:25;92350.13;;;9.57;88.11
1472;BME280;963;42.644;23.336;2024-01-07T04:47:50;92354.09;;;9.38;88.31
1472;BME280;963;42.644;23.336;2024-01-07T04:50:16;92346.66;;;9.33;88.16
1472;BME280;963;42.644;23.336;2024-01-07T04:52:45;92351.88;;;9.36;88.63
1472;BME280;963;42.644;23.336;2024-01-07T04:55:10;92360.03;;;9.42;88.57
1472;BME280;963;42.644;23.336;2024-01-07T04:57:36;92382.13;;;9.45;88.86
1472;BME280;963;42.644;23.336;2024-01-07T05:00:02;92362.97;;;9.48;88.90
1472;BME280;963;42.644;23.336;2024-01-07T05:02:28;92362.50;;;9.56;88.58
1472;BME280;963;42.644;23.336;2024-01-07T05:04:54;92373.78;;;9.53;88.74
1472;BME280;963;42.644;23.336;2024-01-07T05:07:19;92355.00;;;9.55;88.79
1472;BME280;963;42.644;23.336;2024-01-07T05:09:45;92331.75;;;9.57;88.76
1472;BME280;963;42.644;23.336;2024-01-07T05:12:10;92356.75;;;9.65;88.33
1472;BME280;963;42.644;23.336;2024-01-07T05:14:36;92340.72;;;9.59;88.83
1472;BME280;963;42.644;23.336;2024-01-07T05:17:02;92350.00;;;9.67;89.49
1472;BME280;963;42.644;23.336;2024-01-07T05:19:28;92370.63;;;9.65;89.22
1472;BME280;963;42.644;23.336;2024-01-07T05:21:53;92347.38;;;9.67;88.66
1472;BME280;963;42.644;23.336;2024-01-07T05:24:19;92355.25;;;9.67;88.58
1472;BME280;963;42.644;23.336;2024-01-07T05:26:44;92339.50;;;9.67;88.99
1472;BME280;963;42.644;23.336;2024-01-07T05:29:10;92352.63;;;9.67;89.38
1472;BME280;963;42.644;23.336;2024-01-07T05:31:38;92343.63;;;9.68;88.93
1472;BME280;963;42.644;23.336;2024-01-07T05:34:03;92345.66;;;9.54;89.57
1472;BME280;963;42.644;23.336;2024-01-07T05:36:28;92359.06;;;9.59;89.95
1472;BME280;963;42.644;23.336;2024-01-07T05:38:54;92368.88;;;9.55;90.04
1472;BME280;963;42.644;23.336;2024-01-07T05:41:19;92334.41;;;9.53;89.60
1472;BME280;963;42.644;23.336;2024-01-07T05:43:45;92324.50;;;9.64;89.11
1472;BME280;963;42.644;23.336;2024-01-07T05:46:10;92330.16;;;9.66;89.25
1472;BME280;963;42.644;23.336;2024-01-07T05:48:44;92344.47;;;9.58;89.91
1472;BME280;963;42.644;23.336;2024-01-07T05:51:10;92359.34;;;9.38;90.15
1472;BME280;963;42.644;23.336;2024-01-07T05:53:35;92372.69;;;8.75;94.93
1472;BME280;963;42.644;23.336;2024-01-07T05:56:01;92366.41;;;8.66;95.61
1472;BME280;963;42.644;23.336;2024-01-07T05:58:26;92361.16;;;8.66;95.24
1472;BME280;963;42.644;23.336;2024-01-07T06:00:52;92367.81;;;8.74;96.19
1472;BME280;963;42.644;23.336;2024-01-07T06:03:17;92343.84;;;8.75;95.35
1472;BME280;963;42.644;23.336;2024-01-07T06:05:42;92339.47;;;9.03;93.88
1472;BME280;963;42.644;23.336;2024-01-07T06:08:08;92330.78;;;9.09;93.57
1472;BME280;963;42.644;23.336;2024-01-07T06:10:33;92342.31;;;8.78;95.36
1472;BME280;963;42.644;23.336;2024-01-07T06:12:59;92330.88;;;8.61;96.26
1472;BME280;963;42.644;23.336;2024-01-07T06:15:24;92351.41;;;8.11;100.00
1472;BME280;963;42.644;23.336;2024-01-07T06:17:49;92341.63;;;8.26;100.00
1472;BME280;963;42.644;23.336;2024-01-07T06:20:15;92358.63;;;8.52;99.82
1472;BME280;963;42.644;23.336;2024-01-07T06:22:40;92345.81;;;8.64;98.62
1472;BME280;963;42.644;23.336;2024-01-07T06:25:07;92344.31;;;8.67;98.35
1472;BME280;963;42.644;23.336;2024-01-07T06:27:32;92350.97;;;8.75;97.87
1472;BME280;963;42.644;23.336;2024-01-07T06:29:57;92333.44;;;8.20;100.00
1472;BME280;963;42.644;23.336;2024-01-07T06:32:23;92345.34;;;8.28;100.00
1472;BME280;963;42.644;23.336;2024-01-07T06:34:50;92338.31;;;8.14;100.00
1472;BME280;963;42.644;23.336;2024-01-07T06:37:15;92339.28;;;8.38;100.00
1472;BME280;963;42.644;23.336;2024-01-07T06:39:41;92366.13;;;8.57;100.00
1472;BME280;963;42.644;23.336;2024-01-07T06:42:06;92378.19;;;8.40;100.00
1472;BME280;963;42.644;23.336;2024-01-07T06:44:32;92386.63;;;8.65;99.92
1472;BME280;963;42.644;23.336;2024-01-07T06:46:57;92384.22;;;8.82;98.57
1472;BME280;963;42.644;23.336;2024-01-07T06:49:22;92385.31;;;8.88;98.59
1472;BME280;963;42.644;23.336;2024-01-07T06:51:48;92378.56;;;8.87;98.03
1472;BME280;963;42.644;23.336;2024-01-07T06:54:13;92347.59;;;8.74;97.36
1472;BME280;963;42.644;23.336;2024-01-07T06:56:38;92370.19;;;9.02;97.49
1472;BME280;963;42.644;23.336;2024-01-07T06:59:04;92378.63;;;9.21;96.10
1472;BME280;963;42.644;23.336;2024-01-07T07:01:29;92391.69;;;9.24;95.83
1472;BME280;963;42.644;23.336;2024-01-07T07:03:55;92374.81;;;9.25;95.72
1472;BME280;963;42.644;23.336;2024-01-07T07:06:20;92383.44;;;9.26;95.29
1472;BME280;963;42.644;23.336;2024-01-07T07:08:45;92380.41;;;9.31;95.23
1472;BME280;963;42.644;23.336;2024-01-07T07:11:11;92387.06;;;9.39;94.68
1472;BME280;963;42.644;23.336;2024-01-07T07:13:36;92374.28;;;9.41;94.36
1472;BME280;963;42.644;23.336;2024-01-07T07:16:03;92366.81;;;9.39;94.48
1472;BME280;963;42.644;23.336;2024-01-07T07:18:29;92365.25;;;9.46;94.25
1472;BME280;963;42.644;23.336;2024-01-07T07:20:54;92360.69;;;9.50;94.05
1472;BME280;963;42.644;23.336;2024-01-07T07:23:19;92347.09;;;9.58;93.65
1472;BME280;963;42.644;23.336;2024-01-07T07:25:45;92364.25;;;9.66;93.51
1472;BME280;963;42.644;23.336;2024-01-07T07:28:11;92353.66;;;9.74;93.34
1472;BME280;963;42.644;23.336;2024-01-07T07:30:36;92358.69;;;9.30;93.64
1472;BME280;963;42.644;23.336;2024-01-07T07:33:02;92375.22;;;9.24;93.24
1472;BME280;963;42.644;23.336;2024-01-07T07:35:28;92371.81;;;9.27;92.77
1472;BME280;963;42.644;23.336;2024-01-07T07:37:53;92373.56;;;9.40;92.42
1472;BME280;963;42.644;23.336;2024-01-07T07:40:19;92371.06;;;9.60;91.38
1472;BME280;963;42.644;23.336;2024-01-07T07:42:44;92368.72;;;9.69;90.39
1472;BME280;963;42.644;23.336;2024-01-07T07:45:10;92363.28;;;9.84;89.82
1472;BME280;963;42.644;23.336;2024-01-07T07:47:36;92351.75;;;9.78;89.95
1472;BME280;963;42.644;23.336;2024-01-07T07:50:01;92360.38;;;9.78;90.83
1472;BME280;963;42.644;23.336;2024-01-07T07:52:28;92356.09;;;9.57;91.86
1472;BME280;963;42.644;23.336;2024-01-07T07:54:53;92342.28;;;9.84;92.41
1472;BME280;963;42.644;23.336;2024-01-07T07:57:19;92341.25;;;9.78;90.91
1472;BME280;963;42.644;23.336;2024-01-07T07:59:47;92349.88;;;10.05;89.41
1472;BME280;963;42.644;23.336;2024-01-07T08:02:13;92351.31;;;10.10;89.86
1472;BME280;963;42.644;23.336;2024-01-07T08:04:38;92349.34;;;10.17;89.54
1472;BME280;963;42.644;23.336;2024-01-07T08:07:06;92346.28;;;10.22;88.88
1472;BME280;963;42.644;23.336;2024-01-07T08:09:32;92351.44;;;10.29;87.86
1472;BME280;963;42.644;23.336;2024-01-07T08:11:57;92360.06;;;10.30;88.39
1472;BME280;963;42.644;23.336;2024-01-07T08:14:23;92353.53;;;10.42;86.76
1472;BME280;963;42.644;23.336;2024-01-07T08:16:48;92360.16;;;10.50;85.89
1472;BME280;963;42.644;23.336;2024-01-07T08:19:14;92360.50;;;10.52;85.79
1472;BME280;963;42.644;23.336;2024-01-07T08:21:39;92342.09;;;10.52;85.14
1472;BME280;963;42.644;23.336;2024-01-07T08:24:05;92356.16;;;10.65;85.42
1472;BME280;963;42.644;23.336;2024-01-07T08:26:30;92352.06;;;10.10;87.31
1472;BME280;963;42.644;23.336;2024-01-07T08:28:56;92347.09;;;9.89;88.13
1472;BME280;963;42.644;23.336;2024-01-07T08:31:22;92349.84;;;10.09;88.17
1472;BME280;963;42.644;23.336;2024-01-07T08:33:47;92343.78;;;10.39;86.74
1472;BME280;963;42.644;23.336;2024-01-07T08:36:12;92347.22;;;10.59;86.00
1472;BME280;963;42.644;23.336;2024-01-07T08:38:38;92352.81;;;10.38;86.53
1472;BME280;963;42.644;23.336;2024-01-07T08:41:03;92370.06;;;10.39;87.19
1472;BME280;963;42.644;23.336;2024-01-07T08:43:30;92356.75;;;10.26;87.40
1472;BME280;963;42.644;23.336;2024-01-07T08:45:55;92349.56;;;10.53;86.22
1472;BME280;963;42.644;23.336;2024-01-07T08:48:21;92344.59;;;10.59;86.28
1472;BME280;963;42.644;23.336;2024-01-07T08:50:46;92338.41;;;10.69;86.29
1472;BME280;963;42.644;23.336;2024-01-07T08:53:11;92364.31;;;10.71;86.74
1472;BME280;963;42.644;23.336;2024-01-07T08:55:37;92345.97;;;10.90;87.18
1472;BME280;963;42.644;23.336;2024-01-07T08:58:03;92338.41;;;10.92;87.07
1472;BME280;963;42.644;23.336;2024-01-07T09:00:28;92338.84;;;11.11;86.63
1472;BME280;963;42.644;23.336;2024-01-07T09:02:56;92334.25;;;11.15;86.07
1472;BME280;963;42.644;23.336;2024-01-07T09:05:22;92321.38;;;10.77;88.09
1472;BME280;963;42.644;23.336;2024-01-07T09:07:49;92321.50;;;10.70;89.08
1472;BME280;963;42.644;23.336;2024-01-07T09:10:15;92330.47;;;10.96;89.05
1472;BME280;963;42.644;23.336;2024-01-07T09:12:40;92340.59;;;10.74;90.56
1472;BME280;963;42.644;23.336;2024-01-07T09:15:06;92342.19;;;10.91;89.44
1472;BME280;963;42.644;23.336;2024-01-07T09:17:37;92350.94;;;10.61;91.94
1472;BME280;963;42.644;23.336;2024-01-07T09:20:07;92336.19;;;10.91;90.02
1472;BME280;963;42.644;23.336;2024-01-07T09:22:33;92353.66;;;11.01;89.07
1472;BME280;963;42.644;23.336;2024-01-07T09:25:04;92346.31;;;10.92;86.67
1472;BME280;963;42.644;23.336;2024-01-07T09:27:30;92373.28;;;10.73;88.06
1472;BME280;963;42.644;23.336;2024-01-07T09:29:56;92346.66;;;10.94;87.76
1472;BME280;963;42.644;23.336;2024-01-07T09:32:21;92359.88;;;11.11;87.54
1472;BME280;963;42.644;23.336;2024-01-07T09:34:47;92334.38;;;11.08;88.44
1472;BME280;963;42.644;23.336;2024-01-07T09:37:12;92350.50;;;10.90;87.83
1472;BME280;963;42.644;23.336;2024-01-07T09:39:41;92322.81;;;11.25;86.22
1472;BME280;963;42.644;23.336;2024-01-07T09:42:14;92335.22;;;11.44;86.56
1472;BME280;963;42.644;23.336;2024-01-07T09:44:43;92323.69;;;11.58;85.81
1472;BME280;963;42.644;23.336;2024-01-07T09:47:14;92323.84;;;11.87;85.10
1472;BME280;963;42.644;23.336;2024-01-07T09:49:40;92334.94;;;12.14;82.78
1472;BME280;963;42.644;23.336;2024-01-07T09:52:07;92328.88;;;12.34;80.70
1472;BME280;963;42.644;23.336;2024-01-07T09:54:33;92315.81;;;12.10;79.79
1472;BME280;963;42.644;23.336;2024-01-07T09:57:03;92338.56;;;12.04;79.31
1472;BME280;963;42.644;23.336;2024-01-07T09:59:29;92315.81;;;11.94;80.25
1472;BME280;963;42.644;23.336;2024-01-07T10:01:56;92318.94;;;12.05;80.44
1472;BME280;963;42.644;23.336;2024-01-07T10:04:22;92316.97;;;11.93;80.12
1472;BME280;963;42.644;23.336;2024-01-07T10:06:48;92320.56;;;11.23;82.40
1472;BME280;963;42.644;23.336;2024-01-07T10:09:33;92329.13;;;11.08;83.81
1472;BME280;963;42.644;23.336;2024-01-07T10:11:58;92325.53;;;10.78;86.33
1472;BME280;963;42.644;23.336;2024-01-07T10:14:24;92323.72;;;11.15;84.89
1472;BME280;963;42.644;23.336;2024-01-07T10:16:52;92291.69;;;11.20;84.08
1472;BME280;963;42.644;23.336;2024-01-07T10:19:22;92319.75;;;11.26;83.67
1472;BME280;963;42.644;23.336;2024-01-07T10:22:04;92304.63;;;10.91;85.62
1472;BME280;963;42.644;23.336;2024-01-07T10:24:40;92273.31;;;11.36;83.78
1472;BME280;963;42.644;23.336;2024-01-07T10:27:07;92272.19;;;11.37;83.66
1472;BME280;963;42.644;23.336;2024-01-07T10:29:33;92282.72;;;10.98;82.50
1472;BME280;963;42.644;23.336;2024-01-07T10:32:02;92269.06;;;11.42;80.55
1472;BME280;963;42.644;23.336;2024-01-07T10:34:30;92280.00;;;11.61;78.84
1472;BME280;963;42.644;23.336;2024-01-07T10:36:58;92288.19;;;11.26;79.20
1472;BME280;963;42.644;23.336;2024-01-07T10:39:24;92282.06;;;11.49;78.30
1472;BME280;963;42.644;23.336;2024-01-07T10:41:50;92262.75;;;11.20;79.35
1472;BME280;963;42.644;23.336;2024-01-07T10:44:19;92265.88;;;11.51;79.52
1472;BME280;963;42.644;23.336;2024-01-07T10:46:45;92281.16;;;11.76;78.58
1472;BME280;963;42.644;23.336;2024-01-07T10:49:21;92270.94;;;11.98;77.61
1472;BME280;963;42.644;23.336;2024-01-07T10:52:04;92275.88;;;12.12;76.36
1472;BME280;963;42.644;23.336;2024-01-07T10:54:30;92283.53;;;12.06;76.04
1472;BME280;963;42.644;23.336;2024-01-07T10:59:41;92265.50;;;12.21;76.82
1472;BME280;963;42.644;23.336;2024-01-07T11:02:07;92272.19;;;12.42;75.67
1472;BME280;963;42.644;23.336;2024-01-07T11:07:32;92276.97;;;12.31;75.30
1472;BME280;963;42.644;23.336;2024-01-07T11:12:39;92270.34;;;12.23;76.75
1472;BME280;963;42.644;23.336;2024-01-07T11:15:05;92260.09;;;12.28;76.75
1472;BME280;963;42.644;23.336;2024-01-07T11:17:40;92276.63;;;12.45;75.93
1472;BME280;963;42.644;23.336;2024-01-07T11:20:07;92287.25;;;12.41;75.86
1472;BME280;963;42.644;23.336;2024-01-07T11:22:36;92278.59;;;12.25;76.36
1472;BME280;963;42.644;23.336;2024-01-07T11:25:02;92260.00;;;12.15;76.59
1472;BME280;963;42.644;23.336;2024-01-07T11:27:31;92251.03;;;11.77;77.21
1472;BME280;963;42.644;23.336;2024-01-07T11:30:07;92259.66;;;11.97;76.99
1472;BME280;963;42.644;23.336;2024-01-07T11:32:34;92298.44;;;11.77;78.09
1472;BME280;963;42.644;23.336;2024-01-07T11:35:01;92275.81;;;11.43;78.30
1472;BME280;963;42.644;23.336;2024-01-07T11:37:27;92269.00;;;11.82;76.98
1472;BME280;963;42.644;23.336;2024-01-07T11:39:56;92267.72;;;11.34;78.64
1472;BME280;963;42.644;23.336;2024-01-07T11:42:25;92280.50;;;11.72;77.61
1472;BME280;963;42.644;23.336;2024-01-07T11:44:53;92265.63;;;11.81;77.22
1472;BME280;963;42.644;23.336;2024-01-07T11:47:21;92268.19;;;11.85;77.44
1472;BME280;963;42.644;23.336;2024-01-07T11:49:46;92278.44;;;11.99;76.92
1472;BME280;963;42.644;23.336;2024-01-07T11:52:12;92283.63;;;12.03;77.29
1472;BME280;963;42.644;23.336;2024-01-07T11:54:39;92283.38;;;12.13;76.37
1472;BME280;963;42.644;23.336;2024-01-07T11:57:05;92277.78;;;11.95;77.16
1472;BME280;963;42.644;23.336;2024-01-07T11:59:31;92276.63;;;11.76;78.39
1472;BME280;963;42.644;23.336;2024-01-07T12:01:56;92266.09;;;11.76;78.59
1472;BME280;963;42.644;23.336;2024-01-07T12:04:22;92259.13;;;11.86;78.17
1472;BME280;963;42.644;23.336;2024-01-07T12:06:48;92273.09;;;12.03;76.70
1472;BME280;963;42.644;23.336;2024-01-07T12:09:13;92273.66;;;12.10;76.33
1472;BME280;963;42.644;23.336;2024-01-07T12:11:40;92254.81;;;12.12;76.74
1472;BME280;963;42.644;23.336;2024-01-07T12:14:07;92265.59;;;12.17;76.04
1472;BME280;963;42.644;23.336;2024-01-07T12:16:34;92271.34;;;12.12;76.14
1472;BME280;963;42.644;23.336;2024-01-07T12:18:59;92285.59;;;12.15;76.55
1472;BME280;963;42.644;23.336;2024-01-07T12:21:24;92271.03;;;11.94;76.78
1472;BME280;963;42.644;23.336;2024-01-07T12:23:52;92276.44;;;11.87;76.76
1472;BME280;963;42.644;23.336;2024-01-07T12:26:17;92259.22;;;11.82;76.55
1472;BME280;963;42.644;23.336;2024-01-07T12:28:45;92275.47;;;11.97;76.56
1472;BME280;963;42.644;23.336;2024-01-07T12:31:10;92276.28;;;11.94;77.12
1472;BME280;963;42.644;23.336;2024-01-07T12:33:38;92281.16;;;12.12;76.52
1472;BME280;963;42.644;23.336;2024-01-07T12:36:06;92267.41;;;12.20;75.99
1472;BME280;963;42.644;23.336;2024-01-07T12:38:32;92276.88;;;12.02;76.35
1472;BME280;963;42.644;23.336;2024-01-07T12:40:57;92275.31;;;12.04;76.57
1472;BME280;963;42.644;23.336;2024-01-07T12:43:23;92273.75;;;12.07;76.01
1472;BME280;963;42.644;23.336;2024-01-07T12:45:49;92266.75;;;12.00;76.13
1472;BME280;963;42.644;23.336;2024-01-07T12:48:15;92268.72;;;12.12;76.37
1472;BME280;963;42.644;23.336;2024-01-07T12:50:40;92272.19;;;12.09;76.55
1472;BME280;963;42.644;23.336;2024-01-07T12:53:06;92273.00;;;12.23;76.24
1472;BME280;963;42.644;23.336;2024-01-07T12:55:31;92271.34;;;12.12;76.60
1472;BME280;963;42.644;23.336;2024-01-07T12:57:57;92279.91;;;11.64;77.43
1472;BME280;963;42.644;23.336;2024-01-07T13:00:24;92283.47;;;11.74;77.84
1472;BME280;963;42.644;23.336;2024-01-07T13:02:50;92290.94;;;11.75;77.53
1472;BME280;963;42.644;23.336;2024-01-07T13:05:16;92283.72;;;11.43;78.92
1472;BME280;963;42.644;23.336;2024-01-07T13:07:42;92282.72;;;11.73;78.44
1472;BME280;963;42.644;23.336;2024-01-07T13:10:07;92282.38;;;11.91;77.52
1472;BME280;963;42.644;23.336;2024-01-07T13:12:34;92282.22;;;11.98;77.03
1472;BME280;963;42.644;23.336;2024-01-07T13:15:01;92275.47;;;11.97;77.16
1472;BME280;963;42.644;23.336;2024-01-07T13:17:26;92284.69;;;12.05;76.50
1472;BME280;963;42.644;23.336;2024-01-07T13:19:52;92286.66;;;12.01;76.37
1472;BME280;963;42.644;23.336;2024-01-07T13:22:18;92297.16;;;11.85;77.45
1472;BME280;963;42.644;23.336;2024-01-07T13:24:43;92294.81;;;12.07;77.03
1472;BME280;963;42.644;23.336;2024-01-07T13:27:09;92285.03;;;12.07;76.36
1472;BME280;963;42.644;23.336;2024-01-07T13:29:34;92280.41;;;12.11;75.21
1472;BME280;963;42.644;23.336;2024-01-07T13:32:00;92304.63;;;11.90;76.48